Time;durP1;ratioP1;P1;durP2;ratioP2;P2;SDS_P1;SDS_P2;PMS_P1;PMS_P2;Temp;Humidity;BMP_temperature;BMP_pressure;BME280_temperature;BME280_humidity;BME280_pressure;Samples;Min_cycle;Max_cycle;Signal;HPM_P1;HPM_P2
2022/09/30 00:01:17;;;;;;;8.60;5.47;;;8.80;99.90;;;;;;4971241;28;20046;-89
2022/09/30 00:03:43;;;;;;;9.95;6.05;;;8.60;99.90;;;;;;4972417;28;20045;-89
2022/09/30 00:06:10;;;;;;;10.70;5.18;;;8.50;99.90;;;;;;4971122;28;20056;-90
2022/09/30 00:08:37;;;;;;;8.30;3.58;;;8.60;99.90;;;;;;4972474;28;20127;-90
2022/09/30 00:11:12;;;;;;;6.70;4.13;;;8.40;99.90;;;;;;4971486;28;20081;-89
2022/09/30 00:13:39;;;;;;;7.13;4.28;;;8.30;99.90;;;;;;4972605;28;20414;-89
2022/09/30 00:16:06;;;;;;;7.38;5.20;;;8.70;99.90;;;;;;4971147;28;20544;-89
2022/09/30 00:18:32;;;;;;;7.50;4.60;;;8.30;99.90;;;;;;4972203;28;20099;-89
2022/09/30 00:20:58;;;;;;;8.75;3.92;;;8.30;99.90;;;;;;4971095;28;20038;-89
2022/09/30 00:23:24;;;;;;;11.52;6.63;;;8.20;99.90;;;;;;4970901;28;20054;-89
2022/09/30 00:25:56;;;;;;;8.50;5.78;;;8.10;99.90;;;;;;4972263;28;20046;-89
2022/09/30 00:28:21;;;;;;;11.50;6.45;;;8.10;99.90;;;;;;4971824;28;20057;-90
2022/09/30 00:30:47;;;;;;;14.70;6.38;;;8.00;99.90;;;;;;4971174;28;20050;-90
2022/09/30 00:33:13;;;;;;;8.73;4.38;;;8.30;99.90;;;;;;4971528;28;20486;-89
2022/09/30 00:35:38;;;;;;;7.88;5.10;;;7.80;99.90;;;;;;4970442;28;20126;-89
2022/09/30 00:38:04;;;;;;;7.93;5.20;;;7.80;99.90;;;;;;4972013;28;20043;-89
2022/09/30 00:40:30;;;;;;;21.73;6.43;;;7.70;99.90;;;;;;4971346;28;20188;-90
2022/09/30 00:42:57;;;;;;;58.55;6.70;;;7.70;99.90;;;;;;4970961;28;20054;-89
2022/09/30 00:45:26;;;;;;;34.67;6.53;;;7.70;99.90;;;;;;4970960;28;20058;-89
2022/09/30 00:47:56;;;;;;;6.75;5.15;;;7.70;99.90;;;;;;4986099;28;20054;-89
2022/09/30 00:50:37;;;;;;;9.40;6.78;;;7.70;99.90;;;;;;4966923;28;20161;-89
2022/09/30 00:53:05;;;;;;;9.05;7.00;;;7.70;99.90;;;;;;4952269;28;20055;-89
2022/09/30 00:55:40;;;;;;;12.35;9.05;;;8.00;99.90;;;;;;4952846;28;20235;-89
2022/09/30 00:58:08;;;;;;;19.60;10.35;;;7.80;99.90;;;;;;4952271;28;20058;-90
2022/09/30 01:00:34;;;;;;;14.85;9.88;;;7.90;99.90;;;;;;4969075;28;20507;-89
2022/09/30 01:03:02;;;;;;;10.23;7.07;;;8.20;99.90;;;;;;4952508;28;20055;-90
2022/09/30 01:05:31;;;;;;;11.32;7.22;;;7.90;99.90;;;;;;4951645;28;20429;-89
2022/09/30 01:07:59;;;;;;;13.85;7.50;;;7.80;99.90;;;;;;4952220;28;20043;-90
2022/09/30 01:10:25;;;;;;;11.30;7.30;;;7.80;99.90;;;;;;4952885;28;20089;-89
2022/09/30 01:12:51;;;;;;;12.02;7.03;;;7.80;99.90;;;;;;4967781;28;20078;-89
2022/09/30 01:15:20;;;;;;;9.70;6.97;;;8.10;99.90;;;;;;4952701;28;20472;-89
2022/09/30 01:18:06;;;;;;;11.70;6.97;;;7.80;99.90;;;;;;4951723;28;20054;-89
2022/09/30 01:20:40;;;;;;;12.30;7.57;;;7.80;99.90;;;;;;4952244;28;20077;-90
2022/09/30 01:23:16;;;;;;;9.95;7.25;;;7.70;99.90;;;;;;4954892;28;20101;-88
2022/09/30 01:25:52;;;;;;;9.73;6.68;;;7.70;99.90;;;;;;4971260;28;20067;-90
2022/09/30 01:28:39;;;;;;;8.88;6.50;;;7.80;99.90;;;;;;4972165;28;20077;-90
2022/09/30 01:31:42;;;;;;;8.95;6.95;;;7.80;99.90;;;;;;4972027;28;20137;-89
2022/09/30 01:34:24;;;;;;;6.95;4.68;;;7.70;99.90;;;;;;4955142;28;20053;-89
2022/09/30 01:37:04;;;;;;;10.55;5.32;;;7.70;99.90;;;;;;4954718;28;20051;-89
2022/09/30 01:39:49;;;;;;;16.92;5.80;;;7.70;99.90;;;;;;4955348;28;20054;-89
2022/09/30 01:42:26;;;;;;;7.95;4.95;;;7.70;99.90;;;;;;4955532;28;20051;-89
2022/09/30 01:45:01;;;;;;;10.75;5.40;;;7.60;99.90;;;;;;4954897;28;20077;-89
2022/09/30 01:47:35;;;;;;;6.80;5.03;;;7.60;99.90;;;;;;4955097;28;20058;-89
2022/09/30 01:50:12;;;;;;;13.15;5.10;;;7.80;99.90;;;;;;4954300;28;20125;-89
2022/09/30 01:52:50;;;;;;;26.33;5.53;;;7.60;99.90;;;;;;4955278;28;20307;-89
2022/09/30 01:55:27;;;;;;;10.63;4.35;;;7.80;99.90;;;;;;4954856;28;20129;-89
2022/09/30 01:58:01;;;;;;;8.38;4.80;;;7.70;99.90;;;;;;4954599;28;20058;-89
2022/09/30 02:00:30;;;;;;;7.00;5.10;;;7.50;99.90;;;;;;4954188;28;20138;-89
2022/09/30 02:03:05;;;;;;;5.75;4.10;;;7.40;99.90;;;;;;4954944;28;20064;-89
2022/09/30 02:05:36;;;;;;;6.50;4.90;;;7.40;99.90;;;;;;4953841;28;20054;-89
2022/09/30 02:08:27;;;;;;;6.68;5.13;;;7.40;99.90;;;;;;4953808;28;20057;-88
2022/09/30 02:11:00;;;;;;;7.15;5.47;;;7.40;99.90;;;;;;4954143;28;20043;-89
2022/09/30 02:13:45;;;;;;;115.55;9.80;;;7.30;99.90;;;;;;4955223;28;20054;-89
2022/09/30 02:16:16;;;;;;;25.50;6.18;;;7.30;99.90;;;;;;4953909;28;20105;-89
2022/09/30 02:18:49;;;;;;;7.88;4.88;;;7.20;99.90;;;;;;4954749;28;20047;-89
2022/09/30 02:21:20;;;;;;;7.75;5.93;;;7.30;99.90;;;;;;4952994;28;20109;-90
2022/09/30 02:23:49;;;;;;;11.02;6.97;;;7.10;99.90;;;;;;4954361;28;20043;-89
2022/09/30 02:26:20;;;;;;;10.00;6.97;;;7.40;99.90;;;;;;4954215;28;20050;-89
2022/09/30 02:28:52;;;;;;;9.05;6.97;;;7.50;99.90;;;;;;4953458;28;20049;-89
2022/09/30 02:31:23;;;;;;;8.87;6.17;;;7.20;99.90;;;;;;4954723;28;20046;-89
2022/09/30 02:33:53;;;;;;;16.38;5.20;;;7.10;99.90;;;;;;4953619;28;20436;-90
2022/09/30 02:36:30;;;;;;;8.68;5.00;;;7.10;99.90;;;;;;4953337;28;20056;-89
2022/09/30 02:39:03;;;;;;;8.38;4.22;;;6.90;99.90;;;;;;4954405;28;20155;-88
2022/09/30 02:41:37;;;;;;;11.00;5.40;;;7.00;99.90;;;;;;4953942;28;20487;-90
2022/09/30 02:44:03;;;;;;;7.70;4.60;;;7.10;99.90;;;;;;4953962;28;20043;-89
2022/09/30 02:46:37;;;;;;;245.40;9.82;;;6.80;99.90;;;;;;4954005;28;20451;-89
2022/09/30 02:49:09;;;;;;;470.92;13.20;;;6.70;99.90;;;;;;4954231;28;20062;-89
2022/09/30 02:52:05;;;;;;;80.17;5.10;;;6.60;99.90;;;;;;4953690;28;20050;-89
2022/09/30 02:54:35;;;;;;;6.50;2.63;;;6.50;99.90;;;;;;4953900;28;20392;-89
2022/09/30 02:57:13;;;;;;;4.32;2.65;;;6.50;99.90;;;;;;4952942;28;20130;-89
2022/09/30 02:59:39;;;;;;;17.77;2.95;;;6.40;99.90;;;;;;4953780;28;20046;-89
2022/09/30 03:02:05;;;;;;;40.95;4.25;;;6.80;99.90;;;;;;4953914;28;20042;-89
2022/09/30 03:04:34;;;;;;;101.85;6.85;;;6.30;99.90;;;;;;4953124;28;20043;-89
2022/09/30 03:07:00;;;;;;;133.60;7.82;;;6.40;99.90;;;;;;4953189;28;20047;-89
2022/09/30 03:09:26;;;;;;;154.27;7.93;;;6.40;99.90;;;;;;4953449;28;20050;-89
2022/09/30 03:12:00;;;;;;;169.55;8.35;;;6.30;99.90;;;;;;4952780;28;20051;-89
2022/09/30 03:14:26;;;;;;;279.80;9.77;;;6.20;99.90;;;;;;4953355;28;20057;-88
2022/09/30 03:17:25;;;;;;;474.40;14.35;;;6.30;99.90;;;;;;4953209;28;20043;-89
2022/09/30 03:20:01;;;;;;;107.10;7.32;;;6.00;99.90;;;;;;4968286;28;20138;-88
2022/09/30 03:22:45;;;;;;;36.03;3.78;;;6.00;99.90;;;;;;4953143;28;20406;-89
2022/09/30 03:25:22;;;;;;;126.72;5.85;;;6.00;99.90;;;;;;4952196;28;20046;-88
2022/09/30 03:28:13;;;;;;;45.38;3.63;;;6.00;99.90;;;;;;4953174;28;20065;-89
2022/09/30 03:30:55;;;;;;;35.15;4.05;;;6.10;99.90;;;;;;4952645;28;20047;-88
2022/09/30 03:33:38;;;;;;;33.80;4.60;;;6.10;99.90;;;;;;4952148;28;20058;-89
2022/09/30 03:36:11;;;;;;;133.23;7.27;;;5.90;99.90;;;;;;4952271;28;20533;-88
2022/09/30 03:38:56;;;;;;;66.95;6.35;;;6.00;99.90;;;;;;4952501;28;20045;-88
2022/09/30 03:41:38;;;;;;;86.75;6.40;;;5.90;99.90;;;;;;4968967;28;20050;-88
2022/09/30 03:44:12;;;;;;;68.93;5.60;;;6.00;99.90;;;;;;4952748;28;20050;-88
2022/09/30 03:46:46;;;;;;;52.92;6.43;;;6.00;99.90;;;;;;4952141;28;20089;-89
2022/09/30 03:49:19;;;;;;;31.10;6.97;;;6.00;99.90;;;;;;4962360;28;20118;-88
2022/09/30 03:51:44;;;;;;;;;;;6.00;99.90;;;;;;4984401;28;20124;-88
2022/09/30 03:54:12;;;;;;;8.70;5.43;;;6.10;99.90;;;;;;4968010;28;19973;-88
2022/09/30 03:56:41;;;;;;;8.40;6.10;;;6.30;99.90;;;;;;4968775;28;20054;-89
2022/09/30 03:59:16;;;;;;;13.68;5.30;;;6.40;99.90;;;;;;4985101;28;20031;-88
2022/09/30 04:01:42;;;;;;;80.75;6.03;;;6.40;99.90;;;;;;4967849;28;20042;-89
2022/09/30 04:04:07;;;;;;;122.10;8.18;;;6.10;99.90;;;;;;4984868;28;20093;-89
2022/09/30 04:06:33;;;;;;;322.10;11.93;;;5.90;99.90;;;;;;4935198;28;20082;-89
2022/09/30 04:08:59;;;;;;;198.25;9.68;;;5.80;99.90;;;;;;4936433;28;20047;-89
2022/09/30 04:11:25;;;;;;;8.32;2.97;;;5.80;99.90;;;;;;4936312;28;20042;-88
2022/09/30 04:13:51;;;;;;;33.38;3.85;;;5.70;99.90;;;;;;4983648;28;20046;-89
2022/09/30 04:16:16;;;;;;;139.13;7.93;;;5.60;99.90;;;;;;4984704;28;20068;-88
2022/09/30 04:18:43;;;;;;;129.70;5.45;;;5.60;99.90;;;;;;4936180;28;20050;-89
2022/09/30 04:21:11;;;;;;;33.38;3.78;;;5.90;99.90;;;;;;4935546;28;20047;-89
2022/09/30 04:23:38;;;;;;;7.32;2.70;;;5.60;99.90;;;;;;4989353;28;20100;-90
2022/09/30 04:26:06;;;;;;;21.65;2.75;;;5.60;99.90;;;;;;4991743;28;20053;-90
2022/09/30 04:28:33;;;;;;;5.82;3.05;;;5.50;99.90;;;;;;4971193;28;20545;-90
2022/09/30 04:31:01;;;;;;;5.35;2.40;;;5.50;99.90;;;;;;4967685;28;20449;-89
2022/09/30 04:33:27;;;;;;;18.42;3.03;;;5.40;99.90;;;;;;4972768;28;20060;-87
2022/09/30 04:35:55;;;;;;;11.45;3.47;;;5.60;99.90;;;;;;4969799;28;20640;-89
2022/09/30 04:38:23;;;;;;;7.10;3.90;;;5.40;99.90;;;;;;4971738;28;20077;-89
2022/09/30 04:40:51;;;;;;;429.13;16.20;;;5.40;99.90;;;;;;4971149;28;20038;-89
2022/09/30 04:43:18;;;;;;;12.43;4.10;;;5.40;99.90;;;;;;4971376;28;20114;-89
2022/09/30 04:45:45;;;;;;;18.30;9.73;;;5.30;99.90;;;;;;4970736;28;20085;-89
2022/09/30 04:48:12;;;;;;;37.47;6.78;;;5.60;99.90;;;;;;4962478;28;20069;-89
2022/09/30 04:50:39;;;;;;;4.80;3.80;;;5.50;99.90;;;;;;4958622;28;20499;-89
2022/09/30 04:53:05;;;;;;;14.25;7.32;;;5.50;99.90;;;;;;4960302;28;20047;-89
2022/09/30 04:55:31;;;;;;;14.13;9.43;;;5.60;99.90;;;;;;4962289;28;20491;-89
2022/09/30 04:57:57;;;;;;;21.90;11.60;;;5.70;99.90;;;;;;4965537;28;20054;-90
2022/09/30 05:00:23;;;;;;;56.25;11.80;;;5.80;99.90;;;;;;4964689;28;20057;-89
2022/09/30 05:02:50;;;;;;;133.57;11.38;;;5.80;99.90;;;;;;4963397;28;20057;-89
2022/09/30 05:05:16;;;;;;;318.42;14.27;;;5.80;99.90;;;;;;4964247;28;20078;-89
2022/09/30 05:07:42;;;;;;;16.95;6.55;;;6.00;99.90;;;;;;4965609;28;20149;-89
2022/09/30 05:10:11;;;;;;;63.05;7.90;;;5.70;99.90;;;;;;4962619;28;20439;-89
2022/09/30 05:12:39;;;;;;;104.25;8.15;;;5.70;99.90;;;;;;4967218;28;20103;-89
2022/09/30 05:15:06;;;;;;;174.55;10.38;;;5.70;99.90;;;;;;4963220;28;20137;-89
2022/09/30 05:17:33;;;;;;;21.48;6.10;;;5.60;99.90;;;;;;4967930;28;20065;-89
2022/09/30 05:19:59;;;;;;;12.10;7.88;;;5.50;99.90;;;;;;4963197;28;20361;-89
2022/09/30 05:22:25;;;;;;;8.98;6.70;;;5.50;99.90;;;;;;4965544;28;20092;-89
2022/09/30 05:24:51;;;;;;;12.52;6.40;;;6.40;99.90;;;;;;4960111;28;20054;-89
2022/09/30 05:27:18;;;;;;;42.92;9.00;;;5.60;99.90;;;;;;4964299;28;20034;-89
2022/09/30 05:29:45;;;;;;;91.65;7.03;;;5.90;99.90;;;;;;4965006;28;20487;-89
2022/09/30 05:32:11;;;;;;;66.90;6.05;;;5.50;99.90;;;;;;4962324;28;20042;-89
2022/09/30 05:34:37;;;;;;;289.27;11.27;;;5.40;99.90;;;;;;4964770;28;20121;-89
2022/09/30 05:37:04;;;;;;;80.32;6.43;;;5.40;99.90;;;;;;4963832;28;20034;-89
2022/09/30 05:39:30;;;;;;;5.50;3.92;;;5.70;99.90;;;;;;4962669;28;20453;-89
2022/09/30 05:41:57;;;;;;;8.88;4.28;;;5.30;99.90;;;;;;4964423;28;20068;-89
2022/09/30 05:44:23;;;;;;;7.78;5.00;;;5.20;99.90;;;;;;4964435;28;20043;-88
2022/09/30 05:46:49;;;;;;;25.88;6.85;;;5.20;99.90;;;;;;4962287;28;20047;-89
2022/09/30 05:49:15;;;;;;;8.95;5.95;;;5.20;99.90;;;;;;4965106;28;20043;-88
2022/09/30 05:51:41;;;;;;;11.05;6.82;;;5.20;99.90;;;;;;4963242;28;20045;-88
2022/09/30 05:54:08;;;;;;;10.43;5.60;;;5.30;99.90;;;;;;4962712;28;20051;-89
2022/09/30 05:56:34;;;;;;;10.07;5.72;;;5.20;99.90;;;;;;4964999;28;20054;-89
2022/09/30 05:59:00;;;;;;;156.70;10.43;;;5.30;99.90;;;;;;4963105;28;20150;-89
2022/09/30 06:01:26;;;;;;;10.63;6.05;;;5.20;99.90;;;;;;4964312;28;20101;-88
2022/09/30 06:03:52;;;;;;;9.52;5.85;;;5.30;99.90;;;;;;4963210;28;20089;-88
2022/09/30 06:06:20;;;;;;;9.90;6.65;;;5.30;99.90;;;;;;4963136;28;20077;-89
2022/09/30 06:08:45;;;;;;;8.15;5.53;;;5.40;99.90;;;;;;4964530;28;20490;-89
2022/09/30 06:11:14;;;;;;;9.00;5.70;;;5.30;99.90;;;;;;4963356;28;20047;-90
2022/09/30 06:13:41;;;;;;;7.75;5.40;;;5.40;99.90;;;;;;4995742;28;20092;-87
2022/09/30 06:16:08;;;;;;;8.52;4.82;;;5.40;99.90;;;;;;4980837;28;20402;-89
2022/09/30 06:18:34;;;;;;;98.68;7.05;;;5.50;99.90;;;;;;4963595;28;20525;-89
2022/09/30 06:21:02;;;;;;;8.55;6.18;;;5.50;99.90;;;;;;4961541;28;20063;-89
2022/09/30 06:23:30;;;;;;;14.60;7.43;;;5.60;99.90;;;;;;4964270;28;20042;-88
2022/09/30 06:25:56;;;;;;;9.48;6.40;;;5.60;99.90;;;;;;4963430;28;20081;-89
2022/09/30 06:28:23;;;;;;;10.68;7.13;;;5.70;99.90;;;;;;4963107;28;20038;-88
2022/09/30 06:30:49;;;;;;;9.60;6.93;;;5.70;99.90;;;;;;4961480;28;20074;-89
2022/09/30 06:33:16;;;;;;;12.73;7.80;;;5.70;99.90;;;;;;4963583;28;20492;-89
2022/09/30 06:35:42;;;;;;;12.38;7.25;;;5.80;99.90;;;;;;4962067;28;20047;-88
2022/09/30 06:38:09;;;;;;;18.88;9.50;;;5.80;99.90;;;;;;4964505;28;20046;-88
2022/09/30 06:40:35;;;;;;;14.13;9.35;;;5.90;99.90;;;;;;4962489;28;20057;-89
2022/09/30 06:43:01;;;;;;;15.07;9.10;;;5.90;99.90;;;;;;4964417;28;20558;-88
2022/09/30 06:45:28;;;;;;;12.73;9.00;;;6.00;99.90;;;;;;4963669;28;20057;-88
2022/09/30 06:47:57;;;;;;;18.92;12.05;;;6.20;99.90;;;;;;4966585;28;20043;-88
2022/09/30 06:50:22;;;;;;;24.45;13.77;;;6.20;99.90;;;;;;4971900;28;20049;-88
2022/09/30 06:52:50;;;;;;;24.55;15.70;;;6.50;99.90;;;;;;4971877;28;20054;-88
2022/09/30 06:55:17;;;;;;;23.95;15.50;;;6.60;99.90;;;;;;4972167;28;20402;-87
2022/09/30 06:57:46;;;;;;;26.67;15.48;;;6.80;99.90;;;;;;4972611;28;20080;-88
2022/09/30 07:00:14;;;;;;;20.50;13.82;;;6.90;99.90;;;;;;4972108;28;20046;-88
2022/09/30 07:02:40;;;;;;;23.80;14.68;;;6.90;99.90;;;;;;4986849;28;20132;-89
2022/09/30 07:05:06;;;;;;;24.77;13.90;;;7.10;99.90;;;;;;4972749;28;20545;-87
2022/09/30 07:07:33;;;;;;;23.23;13.25;;;7.20;99.90;;;;;;4973826;28;20120;-89
2022/09/30 07:09:59;;;;;;;17.65;11.75;;;7.30;99.90;;;;;;4971955;28;20100;-88
2022/09/30 07:12:25;;;;;;;18.52;11.75;;;7.40;99.90;;;;;;4972850;28;20052;-88
2022/09/30 07:14:52;;;;;;;17.33;11.50;;;7.40;99.90;;;;;;4972831;28;20050;-88
2022/09/30 07:17:18;;;;;;;13.07;9.55;;;7.40;99.90;;;;;;4973047;28;20038;-88
2022/09/30 07:19:44;;;;;;;14.38;9.95;;;7.60;99.90;;;;;;4971690;28;20066;-88
2022/09/30 07:22:26;;;;;;;17.55;10.20;;;7.70;99.90;;;;;;4971784;28;20065;-87
2022/09/30 07:24:52;;;;;;;18.20;10.73;;;7.80;99.90;;;;;;4972076;28;20038;-88
2022/09/30 07:27:18;;;;;;;14.23;9.52;;;7.90;99.90;;;;;;4989865;28;20039;-88
2022/09/30 07:29:44;;;;;;;15.10;9.48;;;7.90;99.90;;;;;;4972407;28;20061;-88
2022/09/30 07:32:11;;;;;;;12.73;8.98;;;7.90;99.90;;;;;;4972833;28;20046;-88
2022/09/30 07:34:41;;;;;;;12.90;8.88;;;8.10;99.90;;;;;;4972858;28;20128;-88
2022/09/30 07:37:08;;;;;;;15.40;8.30;;;8.10;99.90;;;;;;4972364;28;20053;-88
2022/09/30 07:39:34;;;;;;;11.95;8.15;;;8.20;99.90;;;;;;4972585;28;20138;-88
2022/09/30 07:42:01;;;;;;;14.50;8.23;;;8.30;99.90;;;;;;4973323;28;20089;-88
2022/09/30 07:44:27;;;;;;;10.75;8.02;;;8.30;99.90;;;;;;4973424;28;20046;-88
2022/09/30 07:46:53;;;;;;;13.73;8.35;;;8.40;99.90;;;;;;4988581;28;20058;-89
2022/09/30 07:49:24;;;;;;;11.65;8.35;;;8.60;99.90;;;;;;4973537;28;20038;-89
2022/09/30 07:51:52;;;;;;;13.65;7.70;;;8.70;99.90;;;;;;4973056;28;20045;-90
2022/09/30 07:54:21;;;;;;;11.50;7.82;;;8.80;99.90;;;;;;4954180;28;20059;-89
2022/09/30 07:56:48;;;;;;;12.75;7.28;;;8.90;99.90;;;;;;4938499;28;20133;-92
2022/09/30 07:59:14;;;;;;;129.65;10.60;;;9.10;99.90;;;;;;4953527;28;20051;-88
2022/09/30 08:01:40;;;;;;;11.95;6.53;;;9.30;99.90;;;;;;4964435;28;20049;-89
2022/09/30 08:04:08;;;;;;;12.30;6.55;;;9.30;99.90;;;;;;4972043;28;20050;-88
2022/09/30 08:06:40;;;;;;;11.93;5.93;;;9.50;99.90;;;;;;4972974;28;20125;-90
2022/09/30 08:09:06;;;;;;;12.52;5.68;;;9.60;99.90;;;;;;4973912;28;20050;-90
2022/09/30 08:11:34;;;;;;;8.57;5.70;;;9.60;99.90;;;;;;4974105;28;20042;-91
2022/09/30 08:14:00;;;;;;;8.15;4.78;;;9.70;99.90;;;;;;4972548;28;20082;-91
2022/09/30 08:16:26;;;;;;;7.47;5.22;;;9.90;99.90;;;;;;4972491;28;20054;-90
2022/09/30 08:18:54;;;;;;;7.40;5.03;;;10.00;99.90;;;;;;4972514;28;20078;-90
2022/09/30 08:21:20;;;;;;;9.02;4.82;;;10.10;99.90;;;;;;4971657;28;20164;-90
2022/09/30 08:23:46;;;;;;;6.72;4.40;;;10.10;99.90;;;;;;4972333;28;20129;-91
2022/09/30 08:26:13;;;;;;;8.02;4.38;;;10.30;99.90;;;;;;4972896;28;20324;-91
2022/09/30 08:28:39;;;;;;;7.05;4.57;;;10.30;99.90;;;;;;4971652;28;20479;-89
2022/09/30 08:31:06;;;;;;;6.82;4.32;;;10.50;99.90;;;;;;4972389;28;20053;-89
2022/09/30 08:33:32;;;;;;;6.03;4.32;;;10.50;99.90;;;;;;4972004;28;20046;-89
2022/09/30 08:36:09;;;;;;;7.55;4.40;;;10.60;99.90;;;;;;4970726;28;20050;-89
2022/09/30 08:38:35;;;;;;;7.07;4.45;;;10.70;99.90;;;;;;4968405;28;20046;-90
2022/09/30 08:41:15;;;;;;;7.25;5.05;;;10.80;99.90;;;;;;4952008;28;20507;-90
2022/09/30 08:44:09;;;;;;;6.65;5.00;;;10.90;99.90;;;;;;4968808;28;20101;-90
2022/09/30 08:46:40;;;;;;;8.93;4.88;;;11.10;99.90;;;;;;4968820;28;20054;-88
2022/09/30 08:49:22;;;;;;;8.10;4.78;;;11.20;99.90;;;;;;4952378;28;20161;-91
2022/09/30 08:51:50;;;;;;;9.23;5.25;;;11.30;99.90;;;;;;4952367;28;20193;-91
2022/09/30 08:54:20;;;;;;;7.60;5.15;;;11.40;99.90;;;;;;4952291;28;20494;-91
2022/09/30 08:56:46;;;;;;;8.70;4.72;;;11.50;99.90;;;;;;4967913;28;20149;-91
2022/09/30 08:59:34;;;;;;;7.47;5.30;;;11.70;99.90;;;;;;4955955;28;20089;-90
2022/09/30 09:02:17;;;;;;;8.27;4.78;;;11.70;99.90;;;;;;4971088;28;20046;-90
2022/09/30 09:04:44;;;;;;;9.70;5.10;;;11.80;99.90;;;;;;4971259;28;20486;-90
2022/09/30 09:07:30;;;;;;;7.43;4.75;;;11.90;99.90;;;;;;4972448;28;20042;-91
2022/09/30 09:10:24;;;;;;;5.70;4.30;;;12.00;99.90;;;;;;4971186;28;20054;-91
2022/09/30 09:12:57;;;;;;;7.80;4.63;;;12.10;99.90;;;;;;4971995;28;20137;-91
2022/09/30 09:15:26;;;;;;;8.07;4.85;;;12.20;99.90;;;;;;4971992;28;20070;-91
2022/09/30 09:18:06;;;;;;;7.75;5.05;;;12.30;99.90;;;;;;4971219;28;20061;-90
2022/09/30 09:20:45;;;;;;;8.35;4.82;;;12.30;99.90;;;;;;4971955;28;20046;-91
2022/09/30 09:23:13;;;;;;;7.43;5.57;;;12.30;99.90;;;;;;4971261;28;20049;-90
2022/09/30 09:25:38;;;;;;;8.15;5.45;;;12.50;99.90;;;;;;4972001;28;20412;-91
2022/09/30 09:28:21;;;;;;;7.80;4.88;;;12.50;99.90;;;;;;4972034;28;20057;-91
2022/09/30 09:30:56;;;;;;;7.10;4.50;;;12.70;99.90;;;;;;4970586;28;20054;-91
2022/09/30 09:33:28;;;;;;;6.25;4.35;;;12.80;99.90;;;;;;4972498;28;20097;-90
2022/09/30 09:36:06;;;;;;;8.00;4.20;;;12.90;99.90;;;;;;4970876;28;20054;-91
2022/09/30 09:38:59;;;;;;;6.45;3.47;;;13.00;99.90;;;;;;4971718;28;20126;-91
2022/09/30 09:41:51;;;;;;;7.38;4.93;;;12.90;99.90;;;;;;4972334;28;20534;-91
2022/09/30 09:44:48;;;;;;;7.97;4.72;;;13.20;99.90;;;;;;4973319;28;20214;-90
2022/09/30 09:47:15;;;;;;;5.60;3.80;;;13.20;99.90;;;;;;4975247;28;20147;-90
2022/09/30 09:49:44;;;;;;;8.38;4.35;;;13.30;99.90;;;;;;4975172;28;20041;-91
2022/09/30 09:52:11;;;;;;;11.30;3.70;;;13.30;99.90;;;;;;4974810;28;20098;-91
2022/09/30 09:54:44;;;;;;;6.90;4.65;;;13.30;99.90;;;;;;4974714;28;20050;-88
2022/09/30 09:57:13;;;;;;;7.50;4.00;;;13.30;99.90;;;;;;4975265;28;20046;-88
2022/09/30 10:01:06;;;;;;;8.13;4.32;;;13.40;99.90;;;;;;4974464;28;20193;-89
2022/09/30 10:03:03;;;;;;;6.40;3.72;;;13.40;99.90;;;;;;4990639;28;20046;-87
2022/09/30 10:05:38;;;;;;;;;;;13.40;99.90;;;;;;4971141;28;20109;-88
2022/09/30 10:08:11;;;;;;;5.60;2.50;;;13.50;99.90;;;;;;4971917;28;19933;-88
2022/09/30 10:10:45;;;;;;;6.50;4.43;;;13.50;99.90;;;;;;4955861;28;20137;-88
2022/09/30 10:13:16;;;;;;;7.80;4.05;;;13.60;99.90;;;;;;4954872;28;20133;-88
2022/09/30 10:15:42;;;;;;;6.25;4.00;;;13.60;99.90;;;;;;4970807;28;20506;-88
2022/09/30 10:18:18;;;;;;;4.88;3.15;;;13.60;99.90;;;;;;4955413;28;20046;-89
2022/09/30 10:20:51;;;;;;;4.57;3.22;;;13.70;99.90;;;;;;4955824;28;20043;-88
2022/09/30 10:23:26;;;;;;;4.00;2.38;;;13.60;99.90;;;;;;4968719;28;20042;-89
2022/09/30 10:25:56;;;;;;;5.80;2.53;;;13.60;99.90;;;;;;4981851;28;20104;-82
2022/09/30 10:28:26;;;;;;;4.22;2.53;;;13.70;99.90;;;;;;4969547;28;20058;-83
2022/09/30 10:31:06;;;;;;;5.95;2.58;;;13.70;99.90;;;;;;4966044;28;20561;-83
2022/09/30 10:33:43;;;;;;;6.25;2.45;;;13.70;99.90;;;;;;4967539;28;20178;-84
2022/09/30 10:36:15;;;;;;;4.38;2.58;;;13.80;99.90;;;;;;4985521;28;20136;-85
2022/09/30 10:38:55;;;;;;;6.40;2.88;;;13.90;99.90;;;;;;4986713;28;20346;-88
2022/09/30 10:41:24;;;;;;;7.32;3.55;;;14.00;99.90;;;;;;4968182;28;20050;-87
2022/09/30 10:43:53;;;;;;;5.45;3.50;;;14.00;99.90;;;;;;4985927;28;20546;-85
2022/09/30 10:46:26;;;;;;;6.30;4.20;;;14.10;99.90;;;;;;4985725;28;20053;-85
2022/09/30 10:48:54;;;;;;;7.22;4.30;;;14.10;99.90;;;;;;4985502;28;20050;-88
2022/09/30 10:51:24;;;;;;;5.97;4.40;;;14.20;99.90;;;;;;4969839;28;20117;-89
2022/09/30 10:54:10;;;;;;;6.65;4.22;;;14.30;99.90;;;;;;4974078;28;20058;-91
2022/09/30 10:56:44;;;;;;;6.90;4.15;;;14.30;99.90;;;;;;4968882;28;20047;-86
2022/09/30 10:59:20;;;;;;;6.05;4.45;;;14.40;99.90;;;;;;4972642;28;20042;-86
2022/09/30 11:01:51;;;;;;;5.82;2.95;;;14.50;99.90;;;;;;4987237;28;20050;-86
2022/09/30 11:04:30;;;;;;;3.80;2.50;;;14.50;99.90;;;;;;4972294;28;20490;-85
2022/09/30 11:07:09;;;;;;;5.38;2.45;;;14.60;99.90;;;;;;4987793;28;20046;-87
2022/09/30 11:09:42;;;;;;;3.97;2.70;;;14.70;99.90;;;;;;4971777;28;20092;-86
2022/09/30 11:12:18;;;;;;;5.28;2.50;;;14.80;99.90;;;;;;4989512;28;20043;-85
2022/09/30 11:14:52;;;;;;;4.93;2.42;;;14.90;99.90;;;;;;4987482;28;20061;-86
2022/09/30 11:17:36;;;;;;;7.35;2.53;;;15.00;99.90;;;;;;4971379;28;20050;-87
2022/09/30 11:20:20;;;;;;;3.95;2.30;;;15.10;99.90;;;;;;4987187;28;20064;-87
2022/09/30 11:22:59;;;;;;;4.20;1.98;;;15.00;99.90;;;;;;4971624;28;20482;-88
2022/09/30 11:25:42;;;;;;;4.20;1.70;;;14.90;99.90;;;;;;4973219;28;20057;-92
2022/09/30 11:28:31;;;;;;;4.90;1.63;;;15.00;99.90;;;;;;4974662;28;20070;-93
2022/09/30 11:31:25;;;;;;;3.50;1.85;;;15.10;99.90;;;;;;4974050;28;20050;-91
2022/09/30 11:34:04;;;;;;;;;;;15.20;99.90;;;;;;4975400;28;20549;-92
2022/09/30 11:36:40;;;;;;;3.75;1.38;;;15.30;99.90;;;;;;4974699;28;19922;-92
2022/09/30 11:39:15;;;;;;;5.15;1.65;;;15.40;99.90;;;;;;4974435;28;20050;-92
2022/09/30 11:41:48;;;;;;;4.15;1.58;;;15.60;99.90;;;;;;4974276;28;20351;-92
2022/09/30 11:44:29;;;;;;;2.92;1.70;;;15.60;99.90;;;;;;4974796;28;20193;-91
2022/09/30 11:47:16;;;;;;;6.50;2.30;;;15.70;99.90;;;;;;4974430;28;20046;-93
2022/09/30 11:49:49;;;;;;;4.22;1.58;;;15.70;99.90;;;;;;4974535;28;20046;-91
2022/09/30 11:52:31;;;;;;;5.88;1.48;;;15.70;99.90;;;;;;4974345;28;20053;-92
2022/09/30 11:55:21;;;;;;;7.00;1.80;;;15.80;99.90;;;;;;4974589;28;20046;-92
2022/09/30 11:57:56;;;;;;;4.90;1.80;;;15.70;99.90;;;;;;4974321;28;20101;-93
2022/09/30 12:00:22;;;;;;;6.13;2.30;;;15.80;99.90;;;;;;4974144;28;20042;-93
2022/09/30 12:02:55;;;;;;;3.30;1.80;;;15.70;99.90;;;;;;4974405;28;20052;-93
2022/09/30 12:05:26;;;;;;;;;;;15.60;99.90;;;;;;4972240;28;20043;-90
2022/09/30 12:07:59;;;;;;;3.13;1.55;;;15.40;99.90;;;;;;4954605;28;19968;-90
2022/09/30 12:10:30;;;;;;;2.47;1.05;;;15.30;99.90;;;;;;4954929;28;20465;-90
2022/09/30 12:13:03;;;;;;;3.58;1.45;;;15.20;99.90;;;;;;4954522;28;20122;-89
2022/09/30 12:15:36;;;;;;;4.13;1.60;;;15.30;99.90;;;;;;4955650;28;20137;-90
2022/09/30 12:18:09;;;;;;;2.42;1.40;;;15.30;99.90;;;;;;4954737;28;20510;-90
2022/09/30 12:20:41;;;;;;;3.30;1.42;;;15.30;99.90;;;;;;4954549;28;20047;-90
2022/09/30 12:23:14;;;;;;;2.65;1.10;;;15.20;99.90;;;;;;4954773;28;20050;-91
2022/09/30 12:25:46;;;;;;;4.97;1.05;;;15.20;99.90;;;;;;4970396;28;20047;-90
2022/09/30 12:31:37;;;;;;;1.80;0.90;;;15.40;99.90;;;;;;4970290;28;20051;-90
2022/09/30 12:34:18;;;;;;;3.67;1.10;;;15.30;99.90;;;;;;4970163;28;20082;-91
2022/09/30 12:36:58;;;;;;;4.45;0.88;;;15.30;99.90;;;;;;4953621;28;20051;-90
2022/09/30 12:39:53;;;;;;;2.10;0.50;;;15.20;99.90;;;;;;4954522;28;20506;-89
2022/09/30 12:42:57;;;;;;;1.73;0.60;;;15.40;99.90;;;;;;4954219;28;20093;-90
2022/09/30 12:46:03;;;;;;;1.40;0.70;;;15.70;99.90;;;;;;4970547;28;20471;-90
2022/09/30 12:48:49;;;;;;;10.63;0.90;;;15.90;99.90;;;;;;4970367;28;20046;-90
2022/09/30 12:51:26;;;;;;;5.22;0.70;;;15.80;99.90;;;;;;4970212;28;20054;-90
2022/09/30 12:54:01;;;;;;;2.15;0.50;;;15.80;99.90;;;;;;4953609;28;20415;-90
2022/09/30 12:56:29;;;;;;;12.40;0.70;;;15.80;99.90;;;;;;4967949;28;20402;-90
2022/09/30 12:58:56;;;;;;;14.10;0.60;;;15.80;99.90;;;;;;4973849;28;20050;-90
2022/09/30 13:01:31;;;;;;;36.08;1.23;;;15.80;99.90;;;;;;4973275;28;20061;-89
2022/09/30 13:03:59;;;;;;;16.10;1.08;;;15.70;99.90;;;;;;4974325;28;20123;-89
2022/09/30 13:06:27;;;;;;;13.95;0.90;;;15.60;99.90;;;;;;4972583;28;20351;-89
2022/09/30 13:08:56;;;;;;;15.50;1.20;;;15.30;99.90;;;;;;4974882;28;20027;-90
2022/09/30 13:11:32;;;;;;;7.68;0.70;;;15.20;99.90;;;;;;4972911;28;20505;-89
2022/09/30 13:14:11;;;;;;;2.58;0.63;;;15.10;99.90;;;;;;4972826;28;20056;-89
2022/09/30 13:16:57;;;;;;;8.27;0.75;;;15.10;99.90;;;;;;4971631;28;20042;-89